createdAt,value
2023-03-13T00:00:44.033Z,95.40
2023-03-13T00:01:44.068Z,95.20
2023-03-13T00:02:44.005Z,95.30
2023-03-13T00:03:43.988Z,95.61
2023-03-13T00:04:44.046Z,95.20
2023-03-13T00:05:43.970Z,95.46
2023-03-13T00:06:43.971Z,95.46
2023-03-13T00:07:43.946Z,95.15
2023-03-13T00:08:43.950Z,95.05
2023-03-13T00:09:43.926Z,95.15
2023-03-13T00:10:43.932Z,95.15
2023-03-13T00:11:43.906Z,95.15
2023-03-13T00:12:43.914Z,95.36
2023-03-13T00:13:43.884Z,94.64
2023-03-13T00:14:43.871Z,94.64
2023-03-13T00:15:43.889Z,94.74
2023-03-13T00:16:43.958Z,94.84
2023-03-13T00:17:43.851Z,95.05
2023-03-13T00:18:43.857Z,95.05
2023-03-13T00:19:43.811Z,94.74
2023-03-13T00:20:43.814Z,94.95
2023-03-13T00:21:43.805Z,94.95
2023-03-13T00:22:43.786Z,94.84
2023-03-13T00:23:43.777Z,94.84
2023-03-13T00:24:43.785Z,95.36
2023-03-13T00:25:43.750Z,95.10
2023-03-13T00:26:43.743Z,95.36
2023-03-13T00:27:52.935Z,95.67
2023-03-13T00:28:45.677Z,95.25
2023-03-13T00:29:43.723Z,95.31
2023-03-13T00:30:43.741Z,95.15
2023-03-13T00:31:43.794Z,95.05
2023-03-13T00:32:43.728Z,95.42
2023-03-13T00:33:43.676Z,95.62
2023-03-13T00:34:43.688Z,95.62
2023-03-13T00:35:43.672Z,95.62
2023-03-13T00:36:43.654Z,95.52
2023-03-13T00:37:43.668Z,95.52
2023-03-13T00:38:43.616Z,95.52
2023-03-13T00:39:43.608Z,94.90
2023-03-13T00:40:43.593Z,94.80
2023-03-13T00:41:43.604Z,94.90
2023-03-13T00:42:43.572Z,95.73
2023-03-13T00:43:43.572Z,95.62
2023-03-13T00:44:43.544Z,95.42
2023-03-13T00:45:43.593Z,95.73
2023-03-13T00:46:43.540Z,95.52
2023-03-13T00:47:43.555Z,95.52
2023-03-13T00:48:43.515Z,95.31
2023-03-13T00:49:43.489Z,95.73
2023-03-13T00:50:43.479Z,95.73
2023-03-13T00:51:43.492Z,95.31
2023-03-13T00:52:43.463Z,95.62
2023-03-13T00:53:43.478Z,95.21
2023-03-13T00:54:43.450Z,95.62
2023-03-13T00:55:43.430Z,95.52
2023-03-13T00:56:43.416Z,95.31
2023-03-13T00:57:43.406Z,95.83
2023-03-13T00:58:43.417Z,94.90
2023-03-13T00:59:43.391Z,95.21
2023-03-13T01:00:43.368Z,95.10
2023-03-13T01:01:43.360Z,94.65
2023-03-13T01:02:43.484Z,95.00
2023-03-13T01:03:43.399Z,95.37
2023-03-13T01:04:43.351Z,95.10
2023-03-13T01:05:43.345Z,95.10
2023-03-13T01:06:43.422Z,95.00
2023-03-13T01:07:43.315Z,95.10
2023-03-13T01:08:43.307Z,94.49
2023-03-13T01:09:43.305Z,95.52
2023-03-13T01:10:43.269Z,95.31
2023-03-13T01:11:43.255Z,95.62
2023-03-13T01:12:43.248Z,95.06
2023-03-13T01:13:43.273Z,95.06
2023-03-13T01:14:43.248Z,95.10
2023-03-13T01:15:43.284Z,95.21
2023-03-13T01:16:43.228Z,95.17
2023-03-13T01:17:43.218Z,94.85
2023-03-13T01:18:43.189Z,94.90
2023-03-13T01:19:43.193Z,95.06
2023-03-13T01:20:43.202Z,95.31
2023-03-13T01:21:43.180Z,95.17
2023-03-13T01:22:43.174Z,95.21
2023-03-13T01:23:43.180Z,95.17
2023-03-13T01:24:43.131Z,95.37
2023-03-13T01:25:43.122Z,95.17
2023-03-13T01:26:43.131Z,95.06
2023-03-13T01:27:43.128Z,95.00
2023-03-13T01:28:43.106Z,94.76
2023-03-13T01:29:43.087Z,94.96
2023-03-13T01:30:43.179Z,94.96
2023-03-13T01:31:43.116Z,95.06
2023-03-13T01:32:43.132Z,95.06
2023-03-13T01:33:43.053Z,94.55
2023-03-13T01:34:43.029Z,94.03
2023-03-13T01:35:43.144Z,94.55
2023-03-13T01:36:43.021Z,94.24
2023-03-13T01:37:52.451Z,94.85
2023-03-13T01:38:42.988Z,93.93
2023-03-13T01:39:42.980Z,93.93
2023-03-13T01:40:42.959Z,93.83
2023-03-13T01:41:42.965Z,94.13
2023-03-13T01:42:42.946Z,94.03
2023-03-13T01:43:42.920Z,94.13
2023-03-13T01:44:42.916Z,94.03
2023-03-13T01:45:42.904Z,93.73
2023-03-13T01:46:42.970Z,94.03
2023-03-13T01:47:42.904Z,93.41
2023-03-13T01:48:42.888Z,94.13
2023-03-13T01:49:42.860Z,93.83
2023-03-13T01:50:42.850Z,93.93
2023-03-13T01:51:42.884Z,93.52
2023-03-13T01:52:42.830Z,93.41
2023-03-13T01:53:42.825Z,93.73
2023-03-13T01:54:42.806Z,93.52
2023-03-13T01:55:42.806Z,93.52
2023-03-13T01:56:42.799Z,92.90
2023-03-13T01:57:42.825Z,93.52
2023-03-13T01:58:42.771Z,93.41
2023-03-13T01:59:42.776Z,92.80
2023-03-13T02:00:42.751Z,93.31
2023-03-13T02:01:42.843Z,93.41
2023-03-13T02:02:42.744Z,93.31
2023-03-13T02:03:42.705Z,93.93
2023-03-13T02:04:42.709Z,93.41
2023-03-13T02:05:42.717Z,92.90
2023-03-13T02:06:42.676Z,93.52
2023-03-13T02:07:42.706Z,93.01
2023-03-13T02:08:42.658Z,92.65
2023-03-13T02:09:42.704Z,93.27
2023-03-13T02:10:42.655Z,93.01
2023-03-13T02:11:42.631Z,93.27
2023-03-13T02:12:42.618Z,93.21
2023-03-13T02:13:42.630Z,93.41
2023-03-13T02:14:42.595Z,92.69
2023-03-13T02:15:42.661Z,93.06
2023-03-13T02:16:42.597Z,93.11
2023-03-13T02:17:42.560Z,92.59
2023-03-13T02:18:42.565Z,93.01
2023-03-13T02:19:42.558Z,92.90
2023-03-13T02:20:42.544Z,92.65
2023-03-13T02:21:42.514Z,92.03
2023-03-13T02:22:42.506Z,92.34
2023-03-13T02:23:42.534Z,92.34
2023-03-13T02:24:42.496Z,92.96
2023-03-13T02:25:42.482Z,92.24
2023-03-13T02:26:42.478Z,91.83
2023-03-13T02:27:42.465Z,91.93
2023-03-13T02:28:42.446Z,92.03
2023-03-13T02:29:42.433Z,92.34
2023-03-13T02:30:42.457Z,92.03
2023-03-13T02:31:42.478Z,91.93
2023-03-13T02:32:42.529Z,91.83
2023-03-13T02:33:42.386Z,91.62
2023-03-13T02:34:42.404Z,92.14
2023-03-13T02:35:42.443Z,91.72
2023-03-13T02:36:42.364Z,91.62
2023-03-13T02:37:42.344Z,92.14
2023-03-13T02:38:42.335Z,91.83
2023-03-13T02:39:42.356Z,91.83
2023-03-13T02:40:42.313Z,92.14
2023-03-13T02:41:42.329Z,92.14
2023-03-13T02:42:42.300Z,92.03
2023-03-13T02:43:42.292Z,91.83
2023-03-13T02:44:42.280Z,91.83
2023-03-13T02:45:42.293Z,91.83
2023-03-13T02:46:42.290Z,92.14
2023-03-13T02:47:42.244Z,91.83
2023-03-13T02:48:42.232Z,91.78
2023-03-13T02:49:42.234Z,91.83
2023-03-13T02:50:42.216Z,91.83
2023-03-13T02:51:42.215Z,92.03
2023-03-13T02:52:42.221Z,91.83
2023-03-13T02:53:42.182Z,91.99
2023-03-13T02:54:42.176Z,91.83
2023-03-13T02:55:42.195Z,91.99
2023-03-13T02:56:42.149Z,91.99
2023-03-13T02:57:42.157Z,91.99
2023-03-13T02:58:49.651Z,92.20
2023-03-13T02:59:42.125Z,92.14
2023-03-13T03:00:42.140Z,91.17
2023-03-13T03:01:42.109Z,91.27
2023-03-13T03:02:42.127Z,91.27
2023-03-13T03:03:42.209Z,91.17
2023-03-13T03:04:42.070Z,91.47
2023-03-13T03:05:42.065Z,91.17
2023-03-13T03:06:42.048Z,91.38
2023-03-13T03:07:42.032Z,91.58
2023-03-13T03:08:42.041Z,90.96
2023-03-13T03:09:42.010Z,90.86
2023-03-13T03:10:42.013Z,90.66
2023-03-13T03:11:42.036Z,90.66
2023-03-13T03:12:41.993Z,91.44
2023-03-13T03:13:42.005Z,90.86
2023-03-13T03:14:41.961Z,90.86
2023-03-13T03:15:41.982Z,90.61
2023-03-13T03:16:42.016Z,90.92
2023-03-13T03:17:41.937Z,90.92
2023-03-13T03:18:41.930Z,91.06
2023-03-13T03:19:41.928Z,90.92
2023-03-13T03:20:41.907Z,90.72
2023-03-13T03:21:41.899Z,90.55
2023-03-13T03:22:41.888Z,90.66
2023-03-13T03:23:41.871Z,90.61
2023-03-13T03:24:41.901Z,90.55
2023-03-13T03:25:41.844Z,90.66
2023-03-13T03:26:41.848Z,91.27
2023-03-13T03:27:41.832Z,91.38
2023-03-13T03:28:41.815Z,91.27
2023-03-13T03:29:41.802Z,91.27
2023-03-13T03:30:41.802Z,92.20
2023-03-13T03:31:41.872Z,91.58
2023-03-13T03:32:41.839Z,91.89
2023-03-13T03:33:41.758Z,91.99
2023-03-13T03:34:41.747Z,92.10
2023-03-13T03:35:41.803Z,91.78
2023-03-13T03:36:41.729Z,91.99
2023-03-13T03:37:41.733Z,91.78
2023-03-13T03:38:41.692Z,92.20
2023-03-13T03:39:41.681Z,92.50
2023-03-13T03:40:41.698Z,92.82
2023-03-13T03:41:41.681Z,92.92
2023-03-13T03:42:41.652Z,92.92
2023-03-13T03:43:41.664Z,92.30
2023-03-13T03:44:41.630Z,92.96
2023-03-13T03:45:41.698Z,92.92
2023-03-13T03:46:41.686Z,92.71
2023-03-13T03:47:41.638Z,92.92
2023-03-13T03:48:41.599Z,93.33
2023-03-13T03:49:41.588Z,93.06
2023-03-13T03:50:41.581Z,92.86
2023-03-13T03:51:41.593Z,92.86
2023-03-13T03:52:41.563Z,93.02
2023-03-13T03:53:41.543Z,93.02
2023-03-13T03:54:41.550Z,92.82
2023-03-13T03:55:41.518Z,92.82
2023-03-13T03:56:41.510Z,93.06
2023-03-13T03:57:41.524Z,93.54
2023-03-13T03:58:41.506Z,93.33
2023-03-13T03:59:41.505Z,93.33
2023-03-13T04:00:41.472Z,92.71
2023-03-13T04:01:41.453Z,92.82
2023-03-13T04:02:41.544Z,93.33
2023-03-13T04:03:41.482Z,93.02
2023-03-13T04:04:41.420Z,92.82
2023-03-13T04:05:41.434Z,92.82
2023-03-13T04:06:41.450Z,93.02
2023-03-13T04:07:41.396Z,93.12
2023-03-13T04:08:41.407Z,93.43
2023-03-13T04:09:41.377Z,93.43
2023-03-13T04:10:41.366Z,93.54
2023-03-13T04:11:41.351Z,92.82
2023-03-13T04:12:41.344Z,92.71
2023-03-13T04:13:41.327Z,92.71
2023-03-13T04:14:41.346Z,92.92
2023-03-13T04:15:41.329Z,93.43
2023-03-13T04:16:41.311Z,93.43
2023-03-13T04:17:41.285Z,93.43
2023-03-13T04:18:41.270Z,93.43
2023-03-13T04:19:41.274Z,93.43
2023-03-13T04:20:41.282Z,93.43
2023-03-13T04:21:41.253Z,92.92
2023-03-13T04:22:41.237Z,93.23
2023-03-13T04:23:41.248Z,93.12
2023-03-13T04:24:41.208Z,93.12
2023-03-13T04:25:41.234Z,92.92
2023-03-13T04:26:41.203Z,92.82
2023-03-13T04:27:41.176Z,92.71
2023-03-13T04:28:41.185Z,92.82
2023-03-13T04:29:41.158Z,92.92
2023-03-13T04:30:41.255Z,93.23
2023-03-13T04:31:41.171Z,93.43
2023-03-13T04:32:41.176Z,93.23
2023-03-13T04:33:41.113Z,93.23
2023-03-13T04:34:41.106Z,93.33
2023-03-13T04:35:41.206Z,92.71
2023-03-13T04:36:41.094Z,93.23
2023-03-13T04:37:41.087Z,93.12
2023-03-13T04:38:41.058Z,92.92
2023-03-13T04:39:41.067Z,93.02
2023-03-13T04:40:41.057Z,93.02
2023-03-13T04:41:41.037Z,92.92
2023-03-13T04:42:41.031Z,93.23
2023-03-13T04:43:41.005Z,93.08
2023-03-13T04:44:43.443Z,92.97
2023-03-13T04:45:40.989Z,92.87
2023-03-13T04:46:40.998Z,92.67
2023-03-13T04:47:41.034Z,92.67
2023-03-13T04:48:40.963Z,92.67
2023-03-13T04:49:40.946Z,92.82
2023-03-13T04:50:40.939Z,92.92
2023-03-13T04:51:40.932Z,93.08
2023-03-13T04:52:40.918Z,92.82
2023-03-13T04:53:40.945Z,92.87
2023-03-13T04:54:41.509Z,92.87
2023-03-13T04:55:41.521Z,92.25
2023-03-13T04:56:44.357Z,92.87
2023-03-13T04:57:40.871Z,92.77
2023-03-13T04:58:40.844Z,92.87
2023-03-13T04:59:40.856Z,92.77
2023-03-13T05:00:40.864Z,92.46
2023-03-13T05:01:40.876Z,92.87
2023-03-13T05:02:40.879Z,92.87
2023-03-13T05:03:40.886Z,92.77
2023-03-13T05:04:40.805Z,92.67
2023-03-13T05:05:40.782Z,92.97
2023-03-13T05:06:40.767Z,93.08
2023-03-13T05:07:40.858Z,92.97
2023-03-13T05:08:40.782Z,93.18
2023-03-13T05:09:40.734Z,92.77
2023-03-13T05:10:40.739Z,92.82
2023-03-13T05:11:40.722Z,93.39
2023-03-13T05:12:40.704Z,92.25
2023-03-13T05:13:40.694Z,93.74
2023-03-13T05:14:40.699Z,94.01
2023-03-13T05:15:40.737Z,93.70
2023-03-13T05:16:40.666Z,93.84
2023-03-13T05:17:40.651Z,93.54
2023-03-13T05:18:40.650Z,93.80
2023-03-13T05:19:40.656Z,93.33
2023-03-13T05:20:40.642Z,93.59
2023-03-13T05:21:40.627Z,93.70
2023-03-13T05:22:40.589Z,93.84
2023-03-13T05:23:40.591Z,93.59
2023-03-13T05:24:41.961Z,93.59
2023-03-13T05:25:40.600Z,93.39
2023-03-13T05:26:40.585Z,93.90
2023-03-13T05:27:40.553Z,93.90
2023-03-13T05:28:40.543Z,93.70
2023-03-13T05:29:40.529Z,93.70
2023-03-13T05:30:40.602Z,93.90
2023-03-13T05:31:40.512Z,94.21
2023-03-13T05:32:40.567Z,93.70
2023-03-13T05:33:40.496Z,94.11
2023-03-13T05:34:40.471Z,93.70
2023-03-13T05:35:40.500Z,94.11
2023-03-13T05:36:40.457Z,93.90
2023-03-13T05:37:41.409Z,94.01
2023-03-13T05:38:40.435Z,94.31
2023-03-13T05:39:40.423Z,94.01
2023-03-13T05:40:40.462Z,94.93
2023-03-13T05:41:40.394Z,94.52
2023-03-13T05:42:40.573Z,94.73
2023-03-13T05:43:40.367Z,94.73
2023-03-13T05:44:40.359Z,94.31
2023-03-13T05:45:40.347Z,94.62
2023-03-13T05:46:40.408Z,95.14
2023-03-13T05:47:40.347Z,94.93
2023-03-13T05:48:40.360Z,95.09
2023-03-13T05:49:40.314Z,94.99
2023-03-13T05:50:40.305Z,94.42
2023-03-13T05:51:40.304Z,94.42
2023-03-13T05:52:40.280Z,94.78
2023-03-13T05:53:40.269Z,95.03
2023-03-13T05:54:40.271Z,94.93
2023-03-13T05:55:40.234Z,95.30
2023-03-13T05:56:40.228Z,94.89
2023-03-13T05:57:40.221Z,94.93
2023-03-13T05:58:40.204Z,94.73
2023-03-13T05:59:40.211Z,94.42
2023-03-13T06:00:40.189Z,95.09
2023-03-13T06:01:40.176Z,94.31
2023-03-13T06:02:40.163Z,95.55
2023-03-13T06:03:40.464Z,95.65
2023-03-13T06:04:40.270Z,95.45
2023-03-13T06:05:40.122Z,95.65
2023-03-13T06:06:40.141Z,95.45
2023-03-13T06:07:40.123Z,95.14
2023-03-13T06:08:40.111Z,95.14
2023-03-13T06:09:40.096Z,95.34
2023-03-13T06:10:40.105Z,95.34
2023-03-13T06:11:40.069Z,95.34
2023-03-13T06:12:40.055Z,95.34
2023-03-13T06:13:40.052Z,95.45
2023-03-13T06:14:40.034Z,95.24
2023-03-13T06:15:40.027Z,95.34
2023-03-13T06:16:40.007Z,95.70
2023-03-13T06:17:40.005Z,95.55
2023-03-13T06:18:39.979Z,96.21
2023-03-13T06:19:39.975Z,95.55
2023-03-13T06:20:42.234Z,95.55
2023-03-13T06:21:39.960Z,95.45
2023-03-13T06:22:39.944Z,95.90
2023-03-13T06:23:39.962Z,96.00
2023-03-13T06:24:39.917Z,95.90
2023-03-13T06:25:39.924Z,96.11
2023-03-13T06:26:39.901Z,96.37
2023-03-13T06:27:39.892Z,96.58
2023-03-13T06:28:39.877Z,96.37
2023-03-13T06:29:39.869Z,96.52
2023-03-13T06:30:39.878Z,96.52
2023-03-13T06:31:40.082Z,96.52
2023-03-13T06:32:40.019Z,96.17
2023-03-13T06:33:39.819Z,96.58
2023-03-13T06:34:40.512Z,96.47
2023-03-13T06:35:54.737Z,96.58
2023-03-13T06:36:40.919Z,96.31
2023-03-13T06:37:39.789Z,96.06
2023-03-13T06:38:39.763Z,96.47
2023-03-13T06:39:39.912Z,96.47
2023-03-13T06:40:39.742Z,96.06
2023-03-13T06:41:39.771Z,96.68
2023-03-13T06:42:39.773Z,96.31
2023-03-13T06:43:39.713Z,96.78
2023-03-13T06:44:39.706Z,96.68
2023-03-13T06:45:39.695Z,96.27
2023-03-13T06:46:39.755Z,96.99
2023-03-13T06:47:39.670Z,96.99
2023-03-13T06:48:39.655Z,96.99
2023-03-13T06:49:39.662Z,97.14
2023-03-13T06:50:39.645Z,97.30
2023-03-13T06:51:39.626Z,97.30
2023-03-13T06:52:43.879Z,97.19
2023-03-13T06:53:39.604Z,97.30
2023-03-13T06:54:39.629Z,97.75
2023-03-13T06:55:39.605Z,97.50
2023-03-13T06:56:39.605Z,97.44
2023-03-13T06:57:39.561Z,97.55
2023-03-13T06:58:39.562Z,97.40
2023-03-13T06:59:39.543Z,97.40
2023-03-13T07:00:39.561Z,97.61
2023-03-13T07:01:39.523Z,97.40
2023-03-13T07:02:39.509Z,98.02
2023-03-13T07:03:39.592Z,97.40
2023-03-13T07:04:39.497Z,97.40
2023-03-13T07:05:39.476Z,97.50
2023-03-13T07:06:39.485Z,97.50
2023-03-13T07:07:39.475Z,98.12
2023-03-13T07:08:39.440Z,97.71
2023-03-13T07:09:39.486Z,98.22
2023-03-13T07:10:40.034Z,97.97
2023-03-13T07:11:39.422Z,97.77
2023-03-13T07:12:39.398Z,98.18
2023-03-13T07:13:39.386Z,98.38
2023-03-13T07:14:39.372Z,98.12
2023-03-13T07:15:39.405Z,98.22
2023-03-13T07:16:39.393Z,97.77
2023-03-13T07:17:39.412Z,97.87
2023-03-13T07:18:39.342Z,97.45
2023-03-13T07:19:39.328Z,97.77
2023-03-13T07:20:39.444Z,97.25
2023-03-13T07:21:47.061Z,97.77
2023-03-13T07:22:39.297Z,97.66
2023-03-13T07:23:39.277Z,97.36
2023-03-13T07:24:39.352Z,98.18
2023-03-13T07:25:39.281Z,98.18
2023-03-13T07:26:39.412Z,97.97
2023-03-13T07:27:39.280Z,97.77
2023-03-13T07:28:39.230Z,97.66
2023-03-13T07:29:39.221Z,97.66
2023-03-13T07:30:39.202Z,98.07
2023-03-13T07:31:39.223Z,97.66
2023-03-13T07:32:39.266Z,98.18
2023-03-13T07:33:39.177Z,97.87
2023-03-13T07:34:39.166Z,97.97
2023-03-13T07:35:40.260Z,97.66
2023-03-13T07:36:39.321Z,98.69
2023-03-13T07:37:48.122Z,98.38
2023-03-13T07:38:39.122Z,98.49
2023-03-13T07:39:39.113Z,98.49
2023-03-13T07:40:39.093Z,98.79
2023-03-13T07:41:40.112Z,98.59
2023-03-13T07:42:39.078Z,98.54
2023-03-13T07:43:39.094Z,98.49
2023-03-13T07:44:39.057Z,98.49
2023-03-13T07:45:39.135Z,98.33
2023-03-13T07:46:39.033Z,98.49
2023-03-13T07:47:39.025Z,98.59
2023-03-13T07:48:39.027Z,98.54
2023-03-13T07:49:39.006Z,98.44
2023-03-13T07:50:39.103Z,98.44
2023-03-13T07:51:43.842Z,98.44
2023-03-13T07:52:38.969Z,98.75
2023-03-13T07:53:39.082Z,98.75
2023-03-13T07:54:38.936Z,98.54
2023-03-13T07:55:38.945Z,98.65
2023-03-13T07:56:38.927Z,98.44
2023-03-13T07:57:38.928Z,98.65
2023-03-13T07:58:38.930Z,98.54
2023-03-13T07:59:38.916Z,98.39
2023-03-13T08:00:38.884Z,98.29
2023-03-13T08:01:38.866Z,98.60
2023-03-13T08:02:38.917Z,98.80
2023-03-13T08:03:38.923Z,98.80
2023-03-13T08:04:38.854Z,98.60
2023-03-13T08:05:38.826Z,98.50
2023-03-13T08:06:38.810Z,98.60
2023-03-13T08:07:38.799Z,98.91
2023-03-13T08:08:38.793Z,99.21
2023-03-13T08:09:38.804Z,99.21
2023-03-13T08:10:38.789Z,99.11
2023-03-13T08:11:38.763Z,99.52
2023-03-13T08:12:38.749Z,99.63
2023-03-13T08:13:38.730Z,99.47
2023-03-13T08:14:38.758Z,99.99
2023-03-13T08:15:38.731Z,99.99
2023-03-13T08:16:38.730Z,99.99
2023-03-13T08:17:38.691Z,99.99
2023-03-13T08:18:38.674Z,99.99
2023-03-13T08:19:38.685Z,99.99
2023-03-13T08:20:38.701Z,99.99
2023-03-13T08:21:38.653Z,99.99
2023-03-13T08:22:38.636Z,99.99
2023-03-13T08:23:38.638Z,99.99
2023-03-13T08:24:38.611Z,99.99
2023-03-13T08:25:38.610Z,99.99
2023-03-13T08:26:38.618Z,99.99
2023-03-13T08:27:38.597Z,99.99
2023-03-13T08:28:38.563Z,99.99
2023-03-13T08:29:38.582Z,99.99
2023-03-13T08:30:38.602Z,99.99
2023-03-13T08:31:38.609Z,99.99
2023-03-13T08:32:38.647Z,99.99
2023-03-13T08:33:38.515Z,99.99
2023-03-13T08:34:38.513Z,99.99
2023-03-13T08:35:38.543Z,99.99
2023-03-13T08:36:38.488Z,99.99
2023-03-13T08:37:38.489Z,99.99
2023-03-13T08:38:38.456Z,99.99
2023-03-13T08:39:38.450Z,99.99
2023-03-13T08:40:38.448Z,99.99
2023-03-13T08:41:38.464Z,99.99
2023-03-13T08:42:38.409Z,99.99
2023-03-13T08:43:38.398Z,99.99
2023-03-13T08:44:38.398Z,99.99
2023-03-13T08:45:38.379Z,99.99
2023-03-13T08:46:38.518Z,99.99
2023-03-13T08:47:38.404Z,99.99
2023-03-13T08:48:38.380Z,99.99
2023-03-13T08:49:38.353Z,99.99
2023-03-13T08:50:38.329Z,99.99
2023-03-13T08:51:38.349Z,99.99
2023-03-13T08:52:38.343Z,99.99
2023-03-13T08:53:38.305Z,99.99
2023-03-13T08:54:38.295Z,99.99
2023-03-13T08:55:38.289Z,99.99
2023-03-13T08:56:38.269Z,99.99
2023-03-13T08:57:38.257Z,99.99
2023-03-13T08:58:38.260Z,99.99
2023-03-13T08:59:38.231Z,99.99
2023-03-13T09:00:38.239Z,99.99
2023-03-13T09:01:38.220Z,99.99
2023-03-13T09:02:38.273Z,99.99
2023-03-13T09:03:38.300Z,99.99
2023-03-13T09:04:38.178Z,99.99
2023-03-13T09:05:53.140Z,99.99
2023-03-13T09:06:39.185Z,99.99
2023-03-13T09:07:38.148Z,99.99
2023-03-13T09:08:38.143Z,99.99
2023-03-13T09:09:38.153Z,99.99
2023-03-13T09:10:38.124Z,99.99
2023-03-13T09:11:38.113Z,99.99
2023-03-13T09:12:38.093Z,99.99
2023-03-13T09:13:38.082Z,99.99
2023-03-13T09:14:38.101Z,99.99
2023-03-13T09:15:38.116Z,99.99
2023-03-13T09:16:38.065Z,99.99
2023-03-13T09:17:38.056Z,99.99
2023-03-13T09:18:38.035Z,99.99
2023-03-13T09:19:40.167Z,99.90
2023-03-13T09:20:39.026Z,99.90
2023-03-13T09:21:37.996Z,99.69
2023-03-13T09:22:37.997Z,99.90
2023-03-13T09:23:37.976Z,99.69
2023-03-13T09:24:37.985Z,99.69
2023-03-13T09:25:37.980Z,99.99
2023-03-13T09:26:38.709Z,99.99
2023-03-13T09:27:37.943Z,99.99
2023-03-13T09:28:37.913Z,99.08
2023-03-13T09:29:37.924Z,99.28
2023-03-13T09:30:37.901Z,99.18
2023-03-13T09:31:37.934Z,99.18
2023-03-13T09:32:37.949Z,99.49
2023-03-13T09:33:37.888Z,99.38
2023-03-13T09:34:37.873Z,99.18
2023-03-13T09:35:37.902Z,99.28
2023-03-13T09:36:37.839Z,99.08
2023-03-13T09:37:37.825Z,99.28
2023-03-13T09:38:37.833Z,98.87
2023-03-13T09:39:37.806Z,99.28
2023-03-13T09:40:37.792Z,99.18
2023-03-13T09:41:37.785Z,99.59
2023-03-13T09:42:37.767Z,99.99
2023-03-13T09:43:37.776Z,99.95
2023-03-13T09:44:37.745Z,99.90
2023-03-13T09:45:37.736Z,99.79
2023-03-13T09:46:37.775Z,99.99
2023-03-13T09:47:37.723Z,99.85
2023-03-13T09:48:37.737Z,99.75
2023-03-13T09:49:37.700Z,99.75
2023-03-13T09:50:37.695Z,99.75
2023-03-13T09:51:37.687Z,99.85
2023-03-13T09:52:37.666Z,99.44
2023-03-13T09:53:37.662Z,99.95
2023-03-13T09:54:40.667Z,99.99
2023-03-13T09:55:37.646Z,99.99
2023-03-13T09:56:37.614Z,99.99
2023-03-13T09:57:37.609Z,99.44
2023-03-13T09:58:37.594Z,99.40
2023-03-13T09:59:37.589Z,99.03
2023-03-13T10:00:37.593Z,99.29
2023-03-13T10:01:37.588Z,99.09
2023-03-13T10:02:37.553Z,98.88
2023-03-13T10:03:37.550Z,98.58
2023-03-13T10:04:41.139Z,98.37
2023-03-13T10:05:37.510Z,98.07
2023-03-13T10:06:37.498Z,98.22
2023-03-13T10:07:37.518Z,97.96
2023-03-13T10:08:37.501Z,97.55
2023-03-13T10:09:37.472Z,98.02
2023-03-13T10:10:37.466Z,98.22
2023-03-13T10:11:37.452Z,98.33
2023-03-13T10:12:37.454Z,98.33
2023-03-13T10:13:37.430Z,98.33
2023-03-13T10:14:37.418Z,98.53
2023-03-13T10:15:37.407Z,98.83
2023-03-13T10:16:37.556Z,99.04
2023-03-13T10:17:37.393Z,98.94
2023-03-13T10:18:37.378Z,98.94
2023-03-13T10:19:37.363Z,98.94
2023-03-13T10:20:37.348Z,98.94
2023-03-13T10:21:37.340Z,98.94
2023-03-13T10:22:37.353Z,99.15
2023-03-13T10:23:37.525Z,98.94
2023-03-13T10:24:37.363Z,99.04
2023-03-13T10:25:37.287Z,98.90
2023-03-13T10:26:37.289Z,98.69
2023-03-13T10:27:37.281Z,98.18
2023-03-13T10:28:37.266Z,98.18
2023-03-13T10:29:37.251Z,97.77
2023-03-13T10:30:37.260Z,97.77
2023-03-13T10:31:37.349Z,97.46
2023-03-13T10:32:37.243Z,97.21
2023-03-13T10:33:37.212Z,97.15
2023-03-13T10:34:37.201Z,97.72
2023-03-13T10:35:37.254Z,97.41
2023-03-13T10:36:37.188Z,97.72
2023-03-13T10:37:37.165Z,97.00
2023-03-13T10:38:37.160Z,96.80
2023-03-13T10:39:37.158Z,96.80
2023-03-13T10:40:37.145Z,97.11
2023-03-13T10:41:37.151Z,97.00
2023-03-13T10:42:37.118Z,96.86
2023-03-13T10:43:37.096Z,96.34
2023-03-13T10:44:37.110Z,96.66
2023-03-13T10:45:37.094Z,96.75
2023-03-13T10:46:37.141Z,97.06
2023-03-13T10:47:37.109Z,96.14
2023-03-13T10:48:37.063Z,96.75
2023-03-13T10:49:37.037Z,95.48
2023-03-13T10:50:37.023Z,96.30
2023-03-13T10:51:37.012Z,96.41
2023-03-13T10:52:37.010Z,95.13
2023-03-13T10:53:37.016Z,95.23
2023-03-13T10:54:36.992Z,94.73
2023-03-13T10:55:37.006Z,94.48
2023-03-13T10:56:36.964Z,94.37
2023-03-13T10:57:36.981Z,94.48
2023-03-13T10:58:36.967Z,94.48
2023-03-13T10:59:36.927Z,94.12
2023-03-13T11:00:36.937Z,93.82
2023-03-13T11:01:36.923Z,92.69
2023-03-13T11:02:37.061Z,92.69
2023-03-13T11:03:37.014Z,93.00
2023-03-13T11:04:36.872Z,93.00
2023-03-13T11:05:36.882Z,93.26
2023-03-13T11:06:36.892Z,92.86
2023-03-13T11:07:36.845Z,92.59
2023-03-13T11:08:36.886Z,92.04
2023-03-13T11:09:36.829Z,92.04
2023-03-13T11:10:36.835Z,92.04
2023-03-13T11:11:36.821Z,92.14
2023-03-13T11:12:36.800Z,91.59
2023-03-13T11:13:37.966Z,92.10
2023-03-13T11:14:36.807Z,91.28
2023-03-13T11:15:36.782Z,90.36
2023-03-13T11:16:36.849Z,90.53
2023-03-13T11:17:36.745Z,90.32
2023-03-13T11:18:36.731Z,91.09
2023-03-13T11:19:36.723Z,90.28
2023-03-13T11:20:36.694Z,89.77
2023-03-13T11:21:36.726Z,89.53
2023-03-13T11:22:36.690Z,89.06
2023-03-13T11:23:36.679Z,89.06
2023-03-13T11:24:36.657Z,89.06
2023-03-13T11:25:36.652Z,89.53
2023-03-13T11:26:36.632Z,89.42
2023-03-13T11:27:36.744Z,88.92
2023-03-13T11:28:36.611Z,88.51
2023-03-13T11:29:36.661Z,88.61
2023-03-13T11:30:36.599Z,88.61
2023-03-13T11:31:36.599Z,88.81
2023-03-13T11:32:36.678Z,89.01
2023-03-13T11:33:36.572Z,88.61
2023-03-13T11:34:36.551Z,88.40
2023-03-13T11:35:36.630Z,88.31
2023-03-13T11:36:36.553Z,88.61
2023-03-13T11:37:36.538Z,88.20
2023-03-13T11:38:36.527Z,88.51
2023-03-13T11:39:36.515Z,88.71
2023-03-13T11:40:36.487Z,88.40
2023-03-13T11:41:36.591Z,88.46
2023-03-13T11:42:36.470Z,88.67
2023-03-13T11:43:36.494Z,89.18
2023-03-13T11:44:36.460Z,88.98
2023-03-13T11:45:36.441Z,88.32
2023-03-13T11:46:36.620Z,88.73
2023-03-13T11:47:36.409Z,87.00
2023-03-13T11:48:36.439Z,88.16
2023-03-13T11:49:36.862Z,88.02
2023-03-13T11:50:36.377Z,88.26
2023-03-13T11:51:36.500Z,88.42
2023-03-13T11:52:36.359Z,87.81
2023-03-13T11:53:36.355Z,88.42
2023-03-13T11:54:36.367Z,87.71
2023-03-13T11:55:36.326Z,87.51
2023-03-13T11:56:36.314Z,87.30
2023-03-13T11:57:36.299Z,87.20
2023-03-13T11:58:36.298Z,88.12
2023-03-13T11:59:36.349Z,88.02
2023-03-13T12:00:36.300Z,88.93
2023-03-13T12:01:36.252Z,87.55
2023-03-13T12:02:36.329Z,87.71
2023-03-13T12:03:36.360Z,87.61
2023-03-13T12:04:36.224Z,87.61
2023-03-13T12:05:36.271Z,87.71
2023-03-13T12:06:36.202Z,87.30
2023-03-13T12:07:36.200Z,87.51
2023-03-13T12:08:36.215Z,87.92
2023-03-13T12:09:36.171Z,87.67
2023-03-13T12:10:36.167Z,87.67
2023-03-13T12:11:36.152Z,87.06
2023-03-13T12:12:36.288Z,86.35
2023-03-13T12:13:36.237Z,86.41
2023-03-13T12:14:36.161Z,86.51
2023-03-13T12:15:36.329Z,86.21
2023-03-13T12:16:36.122Z,86.10
2023-03-13T12:17:36.287Z,86.41
2023-03-13T12:18:36.183Z,86.10
2023-03-13T12:19:36.067Z,85.70
2023-03-13T12:20:36.180Z,85.80
2023-03-13T12:21:36.089Z,85.86
2023-03-13T12:22:36.047Z,85.66
2023-03-13T12:23:36.120Z,86.21
2023-03-13T12:24:36.007Z,85.86
2023-03-13T12:25:39.099Z,85.15
2023-03-13T12:26:36.032Z,84.64
2023-03-13T12:27:35.978Z,85.05
2023-03-13T12:28:36.008Z,84.95
2023-03-13T12:29:35.979Z,85.15
2023-03-13T12:30:36.074Z,84.44
2023-03-13T12:31:35.954Z,84.74
2023-03-13T12:32:35.982Z,84.70
2023-03-13T12:33:35.922Z,84.56
2023-03-13T12:34:35.900Z,84.46
2023-03-13T12:35:35.906Z,83.45
2023-03-13T12:36:35.884Z,83.61
2023-03-13T12:37:35.882Z,82.90
2023-03-13T12:38:35.901Z,82.50
2023-03-13T12:39:35.877Z,82.53
2023-03-13T12:40:35.841Z,82.70
2023-03-13T12:41:35.833Z,82.70
2023-03-13T12:42:35.836Z,82.90
2023-03-13T12:43:35.816Z,82.33
2023-03-13T12:44:35.817Z,82.03
2023-03-13T12:45:36.015Z,82.29
2023-03-13T12:46:35.910Z,81.68
2023-03-13T12:47:35.793Z,81.78
2023-03-13T12:48:35.828Z,81.27
2023-03-13T12:49:35.795Z,81.74
2023-03-13T12:50:35.771Z,81.34
2023-03-13T12:51:35.737Z,81.40
2023-03-13T12:52:35.717Z,80.69